Time;durP1;ratioP1;P1;durP2;ratioP2;P2;SDS_P1;SDS_P2;PMS_P1;PMS_P2;Temp;Humidity;BMP_temperature;BMP_pressure;BME280_temperature;BME280_humidity;BME280_pressure;Samples;Min_cycle;Max_cycle;Signal;HPM_P1;HPM_P2
2024/02/02 05:24:45;;;;;;;11.97;5.17;;;;;;;3.82;100.00;101761.13;4847439;29;20493;-92
2024/02/02 05:27:38;;;;;;;16.40;5.10;;;;;;;3.80;100.00;101757.59;4828590;29;20136;-91
2024/02/02 05:30:06;;;;;;;12.77;5.00;;;;;;;3.80;100.00;101752.38;4844304;29;20072;-92
2024/02/02 05:32:33;;;;;;;14.23;4.67;;;;;;;3.79;100.00;101755.84;4829208;29;20049;-92
2024/02/02 05:35:00;;;;;;;11.50;4.80;;;;;;;3.82;100.00;101747.16;4829894;29;20061;-92
2024/02/02 05:37:28;;;;;;;9.43;4.33;;;;;;;3.81;100.00;101735.84;4814274;29;20053;-92
2024/02/02 05:39:55;;;;;;;10.43;4.30;;;;;;;3.77;100.00;101741.81;4844841;29;20037;-92
2024/02/02 05:42:22;;;;;;;20.23;5.00;;;;;;;3.79;100.00;101741.88;4814221;29;20041;-92
2024/02/02 05:44:50;;;;;;;17.23;4.70;;;;;;;3.85;100.00;101745.50;4829064;29;20508;-92
2024/02/02 05:47:17;;;;;;;11.17;5.10;;;;;;;3.86;100.00;101749.88;4843986;29;20398;-91
2024/02/02 05:49:44;;;;;;;13.43;5.10;;;;;;;3.87;100.00;101748.19;4843773;29;20049;-93
2024/02/02 05:52:11;;;;;;;13.57;5.53;;;;;;;3.77;100.00;101744.44;4828833;29;20056;-92
2024/02/02 05:54:39;;;;;;;12.10;4.70;;;;;;;3.73;100.00;101750.44;4813664;29;20049;-92
2024/02/02 05:57:06;;;;;;;13.00;5.13;;;;;;;3.79;100.00;101753.22;4828692;29;20228;-92
2024/02/02 05:59:33;;;;;;;15.23;6.17;;;;;;;3.81;100.00;101743.69;4829044;29;20054;-91
2024/02/02 06:02:00;;;;;;;13.27;5.00;;;;;;;3.83;100.00;101747.19;4828626;29;20048;-92
2024/02/02 06:04:28;;;;;;;8.80;4.23;;;;;;;3.76;100.00;101749.63;4843376;29;20049;-92
2024/02/02 06:06:55;;;;;;;15.33;5.27;;;;;;;3.87;100.00;101748.19;4828374;29;20045;-92
2024/02/02 06:09:22;;;;;;;12.77;5.00;;;;;;;3.86;100.00;101762.94;4843539;29;20057;-92
2024/02/02 06:11:50;;;;;;;22.13;9.53;;;;;;;3.92;100.00;101762.22;4813736;29;20214;-91
2024/02/02 06:14:17;;;;;;;16.97;5.37;;;;;;;3.86;100.00;101764.69;4843118;29;20053;-92
2024/02/02 06:16:44;;;;;;;13.03;5.17;;;;;;;3.86;100.00;101754.22;4843217;29;20279;-92
2024/02/02 06:19:11;;;;;;;13.03;6.33;;;;;;;3.84;100.00;101751.59;4843500;29;20050;-92
2024/02/02 06:21:38;;;;;;;20.17;7.40;;;;;;;3.76;100.00;101752.25;4843244;29;20041;-91
2024/02/02 06:24:07;;;;;;;12.63;6.43;;;;;;;3.82;100.00;101755.91;4828243;29;20053;-92
2024/02/02 06:26:36;;;;;;;12.40;8.83;;;;;;;3.82;100.00;101757.63;4859191;29;20045;-92
2024/02/02 06:29:04;;;;;;;16.27;5.73;;;;;;;3.82;100.00;101747.16;4828531;29;20049;-93
2024/02/02 06:31:31;;;;;;;15.67;5.87;;;;;;;3.84;100.00;101748.97;4828532;29;20054;-92
2024/02/02 06:34:01;;;;;;;8.60;4.37;;;;;;;3.85;100.00;101749.84;4828225;29;20503;-92
2024/02/02 06:36:28;;;;;;;10.87;5.77;;;;;;;3.93;100.00;101749.19;4842828;29;20049;-92
2024/02/02 06:38:56;;;;;;;19.73;6.03;;;;;;;3.97;100.00;101751.91;4858232;29;20051;-91
2024/02/02 06:41:24;;;;;;;13.00;5.63;;;;;;;3.93;100.00;101745.69;4828286;29;20079;-91
2024/02/02 06:43:51;;;;;;;12.83;4.93;;;;;;;4.03;100.00;101741.56;4813522;29;20077;-92
2024/02/02 06:46:21;;;;;;;21.97;5.80;;;;;;;3.97;100.00;101742.31;4829308;29;20049;-90
2024/02/02 06:48:52;;;;;;;13.98;4.63;;;;;;;3.80;100.00;101733.19;4830685;29;20049;-92
2024/02/02 06:51:20;;;;;;;16.70;6.10;;;;;;;4.04;100.00;101735.50;4829896;29;20072;-91
2024/02/02 06:53:47;;;;;;;13.73;5.77;;;;;;;3.94;100.00;101729.16;4838858;29;20061;-91
2024/02/02 06:56:36;;;;;;;13.13;5.87;;;;;;;4.00;100.00;101725.81;4863968;29;20049;-94
2024/02/02 06:59:07;;;;;;;13.47;6.80;;;;;;;4.01;100.00;101722.34;4861287;29;20049;-92
2024/02/02 07:01:36;;;;;;;13.43;6.23;;;;;;;3.98;100.00;101712.72;4861591;29;20056;-92
2024/02/02 07:04:12;;;;;;;16.43;8.20;;;;;;;3.99;100.00;101717.09;4846090;29;20045;-91
2024/02/02 07:06:40;;;;;;;27.17;21.17;;;;;;;3.91;100.00;101711.66;4845559;29;20045;-93
2024/02/02 07:09:20;;;;;;;15.00;9.60;;;;;;;3.89;100.00;101705.53;4831896;29;20151;-92
2024/02/02 07:12:09;;;;;;;17.27;6.30;;;;;;;3.99;100.00;101705.75;4846104;29;20053;-92
2024/02/02 07:14:46;;;;;;;17.70;5.80;;;;;;;3.95;100.00;101686.47;4831539;29;20481;-92
2024/02/02 07:17:32;;;;;;;16.67;6.17;;;;;;;3.94;100.00;101682.97;4861695;29;20061;-92
2024/02/02 07:20:03;;;;;;;18.33;5.43;;;;;;;4.04;100.00;101675.38;4861629;29;20064;-91
2024/02/02 07:22:38;;;;;;;19.30;5.83;;;;;;;4.03;100.00;101663.13;4827855;29;20042;-91
2024/02/02 07:25:06;;;;;;;16.97;7.87;;;;;;;4.00;100.00;101655.22;4849986;29;20041;-92
2024/02/02 07:27:55;;;;;;;21.10;7.77;;;;;;;4.03;100.00;101652.66;4842620;29;20057;-92
2024/02/02 07:30:55;;;;;;;17.43;6.27;;;;;;;4.21;100.00;101656.56;4843133;29;20055;-92
2024/02/02 07:33:25;;;;;;;18.10;5.80;;;;;;;4.14;100.00;101659.91;4843577;29;20045;-93
2024/02/02 07:35:57;;;;;;;18.90;6.93;;;;;;;4.28;100.00;101657.56;4842150;29;20045;-92
2024/02/02 07:38:40;;;;;;;16.33;6.33;;;;;;;4.21;100.00;101660.94;4842506;29;20049;-92
2024/02/02 07:41:07;;;;;;;16.70;6.10;;;;;;;4.27;100.00;101653.19;4827480;29;20109;-91
2024/02/02 07:43:35;;;;;;;15.50;5.77;;;;;;;4.31;100.00;101656.75;4827614;29;20045;-91
2024/02/02 07:46:03;;;;;;;13.57;6.10;;;;;;;4.38;100.00;101661.28;4842235;29;20152;-92
2024/02/02 07:48:40;;;;;;;19.13;6.63;;;;;;;4.35;100.00;101659.47;4813745;29;20072;-92
2024/02/02 07:51:08;;;;;;;21.17;7.10;;;;;;;4.34;100.00;101656.81;4857594;29;20081;-91
2024/02/02 07:53:35;;;;;;;13.47;6.70;;;;;;;4.33;100.00;101657.69;4826836;29;20124;-92
2024/02/02 07:56:03;;;;;;;13.40;5.93;;;;;;;4.37;100.00;101656.88;4829211;29;20088;-91
2024/02/02 07:58:30;;;;;;;14.23;5.80;;;;;;;4.31;100.00;101649.81;4809554;29;20046;-91
2024/02/02 08:00:57;;;;;;;17.00;6.77;;;;;;;4.39;100.00;101665.66;4824936;29;20090;-92
2024/02/02 08:03:24;;;;;;;17.47;7.97;;;;;;;4.40;100.00;101668.31;4794554;29;20048;-92
2024/02/02 08:05:52;;;;;;;16.83;6.57;;;;;;;4.44;100.00;101675.34;4809521;29;20506;-92
2024/02/02 08:08:19;;;;;;;19.57;6.77;;;;;;;4.53;100.00;101672.91;4809136;29;20467;-92
2024/02/02 08:10:47;;;;;;;17.87;6.50;;;;;;;4.54;100.00;101679.06;4824285;29;20057;-91
2024/02/02 08:13:15;;;;;;;19.07;7.10;;;;;;;4.51;100.00;101692.94;4809001;29;20054;-92
2024/02/02 08:15:43;;;;;;;17.57;6.50;;;;;;;4.54;100.00;101676.44;4809049;29;20519;-91
2024/02/02 08:18:10;;;;;;;18.33;6.77;;;;;;;4.52;100.00;101662.41;4796933;29;20054;-91
2024/02/02 08:20:38;;;;;;;13.87;6.00;;;;;;;4.55;100.00;101651.16;4827067;29;20045;-92
2024/02/02 08:23:06;;;;;;;14.47;6.80;;;;;;;4.62;100.00;101625.09;4818943;29;20042;-91
2024/02/02 08:25:33;;;;;;;16.63;6.90;;;;;;;4.66;100.00;101610.38;4878763;29;20546;-93
2024/02/02 08:28:01;;;;;;;16.73;6.70;;;;;;;4.60;100.00;101625.94;4848352;29;20067;-90
2024/02/02 08:30:28;;;;;;;20.97;7.47;;;;;;;4.64;100.00;101625.16;4848604;29;20079;-90
2024/02/02 08:32:56;;;;;;;16.73;7.47;;;;;;;4.64;100.00;101622.53;4863542;29;20051;-91
2024/02/02 08:35:25;;;;;;;34.10;7.40;;;;;;;4.70;100.00;101625.25;4833036;29;20098;-91
2024/02/02 08:38:00;;;;;;;14.80;6.43;;;;;;;4.82;100.00;101612.41;4863105;29;20117;-91
2024/02/02 08:40:38;;;;;;;20.73;7.80;;;;;;;4.79;100.00;101623.72;4863845;29;20501;-92
2024/02/02 08:43:25;;;;;;;21.97;7.93;;;;;;;4.87;100.00;101609.84;4850650;29;20059;-93
2024/02/02 08:46:12;;;;;;;17.30;7.30;;;;;;;4.84;100.00;101608.06;4863238;29;20508;-93
2024/02/02 08:48:48;;;;;;;21.23;7.37;;;;;;;4.82;100.00;101601.94;4848758;29;20057;-91
2024/02/02 08:51:27;;;;;;;18.47;6.80;;;;;;;4.79;100.00;101600.16;4833893;29;20057;-91
2024/02/02 08:54:23;;;;;;;18.80;7.03;;;;;;;4.78;100.00;101598.38;4831513;29;20046;-93
2024/02/02 08:57:36;;;;;;;14.97;7.03;;;;;;;4.74;100.00;101587.81;4853276;29;20104;-89
2024/02/02 09:00:36;;;;;;;16.10;6.93;;;;;;;4.73;100.00;101593.94;4872114;29;20029;-90
2024/02/02 09:03:04;;;;;;;14.03;7.47;;;;;;;4.72;100.00;101606.13;4853224;29;20053;-92
2024/02/02 09:05:49;;;;;;;17.63;7.63;;;;;;;4.64;100.00;101610.34;4864560;29;20101;-91
2024/02/02 09:08:27;;;;;;;17.47;6.80;;;;;;;4.77;100.00;101608.81;4864401;29;20049;-92
2024/02/02 09:10:57;;;;;;;24.60;7.73;;;;;;;4.73;100.00;101609.63;4880549;29;20049;-92
2024/02/02 09:13:27;;;;;;;14.53;6.17;;;;;;;4.72;100.00;101598.28;4864457;29;20073;-91
2024/02/02 09:15:54;;;;;;;13.50;7.10;;;;;;;4.79;100.00;101588.78;4834643;29;20056;-94
2024/02/02 09:18:38;;;;;;;20.83;7.73;;;;;;;4.80;100.00;101593.19;4850087;29;20060;-91
2024/02/02 09:21:07;;;;;;;20.05;7.13;;;;;;;4.72;100.00;101597.41;4834717;29;20041;-93
2024/02/02 09:23:36;;;;;;;17.60;8.20;;;;;;;4.72;100.00;101585.19;4821235;29;20056;-91
2024/02/02 09:26:11;;;;;;;12.30;6.87;;;;;;;4.80;100.00;101569.63;4840298;29;20069;-92
2024/02/02 09:28:42;;;;;;;16.37;7.30;;;;;;;4.69;100.00;101579.88;4797212;29;20060;-92
2024/02/02 09:31:13;;;;;;;14.40;6.67;;;;;;;4.64;100.00;101572.81;4797868;29;20102;-92
2024/02/02 09:33:45;;;;;;;17.53;7.50;;;;;;;4.76;100.00;101566.06;4797215;29;20052;-92
2024/02/02 09:36:13;;;;;;;11.53;6.80;;;;;;;4.83;100.00;101556.56;4828851;29;20049;-90
2024/02/02 09:38:47;;;;;;;18.77;7.23;;;;;;;4.83;100.00;101553.97;4798633;29;20057;-91
2024/02/02 09:41:48;;;;;;;16.88;6.43;;;;;;;4.78;100.00;101560.84;4830063;29;20069;-90
2024/02/02 09:44:15;;;;;;;22.93;7.73;;;;;;;4.81;100.00;101566.16;4813310;29;20068;-91
2024/02/02 09:47:09;;;;;;;25.00;8.30;;;;;;;4.76;100.00;101560.81;4829789;29;20054;-91
2024/02/02 09:50:02;;;;;;;15.18;6.82;;;;;;;4.84;100.00;101568.81;4844576;29;20042;-92
2024/02/02 10:10:11;;;;;;;18.83;7.83;;;;;;;4.81;100.00;101537.34;4788128;30;20166;-90
2024/02/02 10:12:56;;;;;;;17.27;8.20;;;;;;;4.88;100.00;101540.97;4756516;30;20519;-90
2024/02/02 10:15:48;;;;;;;14.13;7.63;;;;;;;4.84;100.00;101534.78;4756674;30;20051;-89
2024/02/02 10:18:28;;;;;;;34.73;9.63;;;;;;;4.92;100.00;101530.53;4756621;30;20550;-90
2024/02/02 10:21:25;;;;;;;15.10;7.37;;;;;;;4.94;100.00;101534.06;4756980;30;20051;-91
2024/02/02 10:24:14;;;;;;;16.43;7.73;;;;;;;5.05;100.00;101515.94;4763664;29;20503;-91
2024/02/02 10:26:53;;;;;;;19.17;7.93;;;;;;;5.07;100.00;101504.59;4783773;29;20104;-91
2024/02/02 10:29:32;;;;;;;14.77;7.63;;;;;;;5.16;100.00;101500.38;4785996;30;20047;-90
2024/02/02 10:32:07;;;;;;;15.13;7.37;;;;;;;5.16;100.00;101484.66;4785908;30;20051;-91
2024/02/02 10:34:34;;;;;;;16.83;6.70;;;;;;;5.23;100.00;101482.16;4771066;30;20121;-91
2024/02/02 10:37:09;;;;;;;22.37;8.63;;;;;;;5.30;100.00;101496.22;4770745;30;20137;-90
2024/02/02 10:39:36;;;;;;;13.40;6.73;;;;;;;5.31;100.00;101492.75;4785963;29;20063;-91
2024/02/02 10:42:24;;;;;;;18.40;6.73;;;;;;;5.36;100.00;101483.19;4756009;30;20112;-91
2024/02/02 10:45:07;;;;;;;19.97;7.40;;;;;;;5.43;100.00;101486.78;4785797;30;20123;-90
2024/02/02 10:47:53;;;;;;;14.77;7.17;;;;;;;5.50;100.00;101494.75;4771130;30;20082;-90
2024/02/02 10:50:48;;;;;;;17.27;7.73;;;;;;;5.43;100.00;101482.41;4771097;30;20055;-91
2024/02/02 10:53:31;;;;;;;12.93;6.20;;;;;;;5.42;100.00;101478.03;4773073;29;20058;-89
2024/02/02 10:56:13;;;;;;;18.50;6.77;;;;;;;5.41;100.00;101465.78;4789668;29;20112;-90
2024/02/02 10:58:41;;;;;;;13.33;6.33;;;;;;;5.48;100.00;101466.75;4804567;29;20125;-90
2024/02/02 11:01:14;;;;;;;14.63;6.60;;;;;;;5.43;100.00;101457.94;4789306;29;20096;-90
2024/02/02 11:04:02;;;;;;;16.20;7.50;;;;;;;5.37;100.00;101449.13;4804084;29;20523;-90
2024/02/02 11:06:42;;;;;;;14.90;6.90;;;;;;;5.37;100.00;101422.06;4760073;29;20081;-90
2024/02/02 11:09:23;;;;;;;16.40;6.97;;;;;;;5.41;100.00;101425.63;4789672;29;20459;-90
2024/02/02 11:11:59;;;;;;;16.90;7.35;;;;;;;5.48;100.00;101415.22;4779886;29;20063;-90
2024/02/02 11:14:38;;;;;;;17.60;7.13;;;;;;;5.44;100.00;101402.06;4803628;29;20046;-91
2024/02/02 11:17:35;;;;;;;17.40;7.40;;;;;;;5.47;100.00;101389.00;4803811;29;20411;-90
2024/02/02 11:20:35;;;;;;;16.73;8.13;;;;;;;5.47;100.00;101387.25;4789226;29;20059;-91
2024/02/02 11:23:20;;;;;;;13.37;7.10;;;;;;;5.52;100.00;101387.31;4789088;29;20130;-90
2024/02/02 11:26:11;;;;;;;19.03;7.93;;;;;;;5.50;100.00;101392.53;4774260;29;20043;-91
2024/02/02 11:28:53;;;;;;;17.10;7.63;;;;;;;5.51;100.00;101373.31;4774528;29;20054;-90
2024/02/02 11:32:03;;;;;;;15.93;7.20;;;;;;;5.60;100.00;101380.41;4789465;29;20055;-90
2024/02/02 11:34:50;;;;;;;18.63;8.50;;;;;;;5.58;100.00;101382.13;4763269;29;20434;-90
2024/02/02 11:37:20;;;;;;;19.13;8.63;;;;;;;5.61;100.00;101375.19;4804035;29;20379;-91
2024/02/02 11:40:00;;;;;;;19.43;8.33;;;;;;;5.58;100.00;101387.38;4789547;29;20126;-91
2024/02/02 11:42:30;;;;;;;12.50;7.83;;;;;;;5.63;100.00;101372.56;4797537;29;20034;-91
2024/02/02 11:45:00;;;;;;;20.10;7.47;;;;;;;5.60;100.00;101372.53;4779205;29;20413;-91
2024/02/02 11:47:37;;;;;;;21.03;8.47;;;;;;;5.62;100.00;101369.06;4774602;29;20050;-93
2024/02/02 11:50:06;;;;;;;16.10;8.37;;;;;;;5.63;100.00;101359.47;4760892;29;20134;-91
2024/02/02 11:52:42;;;;;;;21.53;14.53;;;;;;;5.63;100.00;101369.94;4793202;29;20074;-91
2024/02/02 11:55:25;;;;;;;14.17;7.73;;;;;;;5.64;100.00;101359.50;4763959;29;20043;-92
2024/02/02 11:57:59;;;;;;;16.90;9.80;;;;;;;5.56;100.00;101350.69;4797446;29;20053;-92
2024/02/02 12:00:38;;;;;;;19.70;8.02;;;;;;;5.60;100.00;101356.81;4780205;29;20047;-92
2024/02/02 12:03:24;;;;;;;15.40;8.50;;;;;;;5.54;100.00;101347.13;4810561;29;20078;-91
2024/02/02 12:06:20;;;;;;;14.87;7.77;;;;;;;5.60;100.00;101331.47;4798734;29;20072;-92
2024/02/02 12:09:15;;;;;;;13.70;7.30;;;;;;;5.61;100.00;101328.00;4792636;29;20070;-92
2024/02/02 12:11:49;;;;;;;17.25;7.75;;;;;;;5.63;100.00;101330.63;4793925;29;20043;-92
2024/02/02 12:14:34;;;;;;;16.60;7.83;;;;;;;5.59;100.00;101323.59;4779986;29;20069;-91
2024/02/02 12:17:02;;;;;;;18.33;8.07;;;;;;;5.69;100.00;101327.19;4792454;29;20103;-92
2024/02/02 12:19:30;;;;;;;22.07;9.23;;;;;;;5.66;100.00;101317.56;4795997;29;20055;-92
2024/02/02 12:21:57;;;;;;;25.33;14.43;;;;;;;5.71;100.00;101322.84;4777888;29;20137;-92
2024/02/02 12:24:25;;;;;;;18.83;8.80;;;;;;;5.81;100.00;101308.97;4780246;29;20507;-91
2024/02/02 12:26:52;;;;;;;16.47;7.97;;;;;;;5.77;100.00;101294.06;4777350;29;20051;-91
2024/02/02 12:29:21;;;;;;;13.07;7.53;;;;;;;5.74;100.00;101288.81;4791131;29;20100;-92
2024/02/02 12:31:48;;;;;;;16.27;7.37;;;;;;;5.86;100.00;101287.16;4776317;29;20145;-92
2024/02/02 12:34:16;;;;;;;19.07;8.33;;;;;;;5.89;100.00;101283.72;4790625;29;20053;-90
2024/02/02 12:36:45;;;;;;;15.30;8.63;;;;;;;5.84;100.00;101267.91;4760016;29;20085;-91
2024/02/02 12:39:12;;;;;;;16.63;9.97;;;;;;;5.80;100.00;101263.53;4789167;29;20051;-90
2024/02/02 12:41:39;;;;;;;12.90;7.30;;;;;;;5.87;100.00;101256.56;4804777;29;20139;-91
2024/02/02 12:44:07;;;;;;;17.10;8.33;;;;;;;5.86;100.00;101255.69;4775610;29;20038;-91
2024/02/02 12:46:44;;;;;;;21.30;8.37;;;;;;;5.93;100.00;101241.81;4790459;29;20084;-92
2024/02/02 12:49:12;;;;;;;21.60;13.57;;;;;;;5.91;100.00;101253.16;4775124;29;20051;-91
2024/02/02 12:51:40;;;;;;;14.07;7.30;;;;;;;5.99;100.00;101242.72;4760842;29;20138;-92
2024/02/02 12:54:09;;;;;;;14.33;6.70;;;;;;;6.02;100.00;101242.75;4760463;29;20051;-92
2024/02/02 12:56:37;;;;;;;12.87;7.90;;;;;;;6.08;100.00;101230.56;4775189;29;20503;-91
2024/02/02 12:59:05;;;;;;;13.47;7.13;;;;;;;5.95;99.29;101227.81;4789523;29;20259;-91
2024/02/02 13:01:33;;;;;;;14.63;7.30;;;;;;;5.89;99.85;101220.78;4789592;29;20050;-91
2024/02/02 13:04:00;;;;;;;13.57;6.83;;;;;;;5.88;100.00;101221.59;4788233;29;20156;-92
2024/02/02 13:06:28;;;;;;;17.13;8.67;;;;;;;5.87;100.00;101214.63;4789531;29;20043;-92
2024/02/02 13:09:26;;;;;;;14.47;8.37;;;;;;;5.88;100.00;101219.88;4775622;29;20061;-91
2024/02/02 13:12:00;;;;;;;16.37;7.90;;;;;;;5.85;100.00;101212.00;4789501;29;20067;-92
2024/02/02 13:14:35;;;;;;;18.50;8.53;;;;;;;5.83;100.00;101202.38;4790005;29;20412;-92
2024/02/02 13:17:15;;;;;;;14.73;7.63;;;;;;;5.81;100.00;101204.09;4790677;29;20051;-92
2024/02/02 13:19:47;;;;;;;13.60;8.77;;;;;;;5.82;100.00;101209.34;4776217;29;20130;-92
2024/02/02 13:22:18;;;;;;;12.47;8.03;;;;;;;5.85;100.00;101205.88;4775642;29;20112;-91
2024/02/02 13:24:49;;;;;;;12.37;6.90;;;;;;;5.84;100.00;101197.13;4790756;29;20466;-92
2024/02/02 13:27:20;;;;;;;14.83;7.53;;;;;;;5.78;100.00;101198.81;4760957;29;20051;-92
2024/02/02 13:29:56;;;;;;;15.03;7.70;;;;;;;5.78;100.00;101194.44;4776589;29;20062;-92
2024/02/02 13:32:27;;;;;;;17.40;7.53;;;;;;;5.75;100.00;101191.81;4790048;29;20066;-91
2024/02/02 13:34:58;;;;;;;16.20;8.17;;;;;;;5.71;100.00;101183.91;4790203;29;20086;-91
2024/02/02 13:37:33;;;;;;;15.23;8.83;;;;;;;5.70;100.00;101182.16;4790563;29;20417;-92
2024/02/02 13:40:02;;;;;;;20.10;9.77;;;;;;;5.68;100.00;101178.66;4776922;29;20051;-91
2024/02/02 13:42:35;;;;;;;22.47;10.13;;;;;;;5.63;100.00;101174.25;4762455;29;20054;-92
2024/02/02 13:45:09;;;;;;;19.20;10.23;;;;;;;5.68;100.00;101171.66;4784602;29;20047;-92
2024/02/02 13:47:38;;;;;;;19.63;9.10;;;;;;;5.60;100.00;101162.84;4811248;29;20051;-92
2024/02/02 13:50:12;;;;;;;18.57;9.37;;;;;;;5.60;100.00;101158.47;4826808;29;20052;-92
2024/02/02 13:52:39;;;;;;;17.05;8.85;;;;;;;5.60;100.00;101155.00;4782321;29;20123;-92
2024/02/02 13:55:08;;;;;;;22.83;9.50;;;;;;;5.63;100.00;101162.88;4810585;29;20054;-91
2024/02/02 13:57:37;;;;;;;17.83;10.20;;;;;;;5.59;100.00;101159.34;4775326;29;20065;-92
2024/02/02 14:00:06;;;;;;;19.13;9.10;;;;;;;5.64;100.00;101159.41;4789639;29;20061;-91
2024/02/02 14:02:35;;;;;;;17.20;8.80;;;;;;;5.59;100.00;101141.00;4789754;29;20046;-92
2024/02/02 14:05:03;;;;;;;21.17;9.67;;;;;;;5.65;100.00;101141.06;4774547;29;20047;-91
2024/02/02 14:07:30;;;;;;;20.23;9.53;;;;;;;5.74;100.00;101127.13;4774357;29;20051;-91
2024/02/02 14:10:06;;;;;;;20.93;10.17;;;;;;;5.78;100.00;101128.91;4804391;29;20053;-92
2024/02/02 14:12:36;;;;;;;13.93;8.77;;;;;;;5.78;100.00;101125.41;4789549;29;20188;-90
2024/02/02 14:15:05;;;;;;;17.33;9.90;;;;;;;5.76;100.00;101122.78;4789006;29;20487;-91
2024/02/02 14:17:36;;;;;;;20.63;9.27;;;;;;;5.78;100.00;101126.28;4759799;29;20142;-90
2024/02/02 14:20:05;;;;;;;14.03;9.03;;;;;;;5.85;100.00;101129.81;4790566;29;20051;-91
2024/02/02 14:22:34;;;;;;;15.57;9.90;;;;;;;5.82;100.00;101122.81;4781956;29;20141;-91
2024/02/02 14:25:02;;;;;;;19.10;10.07;;;;;;;5.81;100.00;101105.34;4805618;29;20525;-91
2024/02/02 14:27:38;;;;;;;18.50;9.37;;;;;;;5.79;100.00;101114.91;4803978;29;20070;-91
2024/02/02 14:30:07;;;;;;;17.43;11.03;;;;;;;5.77;100.00;101118.41;4789218;29;20050;-91
2024/02/02 14:32:36;;;;;;;20.17;9.93;;;;;;;5.72;100.00;101121.03;4788920;29;20119;-90
2024/02/02 14:35:04;;;;;;;17.90;10.13;;;;;;;5.84;100.00;101114.97;4774085;29;20100;-92
2024/02/02 14:37:32;;;;;;;22.70;9.00;;;;;;;5.77;100.00;101113.16;4788958;29;20475;-91
2024/02/02 14:40:00;;;;;;;21.73;9.40;;;;;;;5.79;100.00;101096.56;4789127;29;20142;-92
2024/02/02 14:42:28;;;;;;;17.10;9.10;;;;;;;5.88;100.00;101104.47;4759503;29;20046;-90
2024/02/02 14:44:58;;;;;;;15.23;8.90;;;;;;;5.86;100.00;101093.13;4774219;29;20074;-90
2024/02/02 14:47:26;;;;;;;19.87;9.70;;;;;;;5.93;100.00;101086.19;4789515;29;20070;-91
2024/02/02 14:49:54;;;;;;;15.53;8.57;;;;;;;5.91;100.00;101090.56;4774588;29;20115;-92
2024/02/02 14:52:21;;;;;;;14.80;9.33;;;;;;;5.89;100.00;101087.03;4775506;29;20061;-91
2024/02/02 14:54:49;;;;;;;22.23;10.83;;;;;;;5.87;100.00;101088.75;4802793;29;20137;-91
2024/02/02 14:57:17;;;;;;;21.67;11.23;;;;;;;5.94;100.00;101082.72;4807307;29;20050;-92
2024/02/02 14:59:51;;;;;;;17.07;9.57;;;;;;;5.97;100.00;101095.84;4806736;29;20054;-92
2024/02/02 15:02:18;;;;;;;20.87;9.23;;;;;;;6.04;100.00;101086.25;4807204;29;20054;-92
2024/02/02 15:04:45;;;;;;;18.40;9.90;;;;;;;6.00;100.00;101088.00;4806593;29;20043;-91
2024/02/02 15:07:13;;;;;;;18.80;8.70;;;;;;;6.02;100.00;101088.88;4791386;29;20081;-90
2024/02/02 15:09:41;;;;;;;17.60;8.60;;;;;;;5.98;100.00;101084.50;4791338;29;20056;-90
2024/02/02 15:12:09;;;;;;;18.43;8.73;;;;;;;5.97;100.00;101079.22;4821362;29;20078;-91
